West Leisenring, Pennsylvania
Current Conditions -  °F | °C
As of 3:53 AM on Wednesday 22 Oct 2014 (Local Time) from KMGW Reporting Station
Light Rain Light Rain  
Wind Chill: 46°   Ceiling: 600
Heat Index: 48°   Visibility: 4mi
Dew Point: 44°   Wind: 5mph
Humidity: 86%   Direction: 290°WNW
Pressure: 30.03"   Gusts: NA
Location:  39.96°N, 79.7°W
Report Text: KMGW 220753Z AUTO 29004KT 4SM -RA BR OVC006 09/07 A3003 RMK AO2 RAB18 SLP170 P0001 T00890067 TSNO
Loading
Personal Weather Stations






























Interactive Weather Map
Tropical Storm Tracking
New forecast layout! Learn more

10-Day Weather Forecast

Advertisements
Track Severe Weather on mobile